Piedmont, California
Current Conditions -  °F | °C
As of 5:53 AM on Friday 19 Dec 2014 (Local Time) from KOAK Reporting Station
Overcast Overcast  
Wind Chill: 56°   Ceiling: 2600
Heat Index: 56°   Visibility: 10mi
Dew Point: 50°   Wind: 16mph
Humidity: 80%   Direction: 150°SSE
Pressure: 30.12"   Gusts: NA
Location:  37.82°N, 122.23°W
Report Text: KOAK 191353Z 15014KT 10SM OVC026 13/10 A3012 RMK AO2 RAB05E16 SLP198 P0000 T01330100
Loading
Personal Weather Stations






























Interactive Weather Map New forecast layout! Learn more

10-Day Weather Forecast

Advertisements
Track Severe Weather on mobile